createdAt,value
2022-07-29T00:01:43.339Z,17.60
2022-07-29T00:04:11.198Z,17.60
2022-07-29T00:06:39.147Z,17.60
2022-07-29T00:09:06.766Z,17.60
2022-07-29T00:11:34.185Z,17.50
2022-07-29T00:14:01.669Z,17.50
2022-07-29T00:16:29.119Z,17.50
2022-07-29T00:18:59.484Z,17.50
2022-07-29T00:21:29.308Z,17.50
2022-07-29T00:23:56.826Z,17.50
2022-07-29T00:26:24.602Z,17.40
2022-07-29T00:28:52.037Z,17.50
2022-07-29T00:31:19.490Z,17.50
2022-07-29T00:33:47.159Z,17.50
2022-07-29T00:36:14.565Z,17.50
2022-07-29T00:38:45.238Z,17.50
2022-07-29T00:41:13.305Z,17.50
2022-07-29T00:43:40.729Z,17.50
2022-07-29T00:46:08.172Z,17.50
2022-07-29T00:48:35.702Z,17.50
2022-07-29T00:51:04.714Z,17.50
2022-07-29T00:53:33.142Z,17.40
2022-07-29T00:56:00.613Z,17.40
2022-07-29T00:58:28.150Z,17.40
2022-07-29T01:00:55.674Z,17.40
2022-07-29T01:03:23.199Z,17.40
2022-07-29T01:05:51.995Z,17.30
2022-07-29T01:08:21.153Z,17.30
2022-07-29T01:10:50.230Z,17.30
2022-07-29T01:13:18.350Z,17.30
2022-07-29T01:15:53.380Z,17.30
2022-07-29T01:18:40.226Z,17.30
2022-07-29T01:21:22.571Z,17.30
2022-07-29T01:24:17.743Z,17.40
2022-07-29T01:26:58.640Z,17.30
2022-07-29T01:29:40.502Z,17.40
2022-07-29T01:32:27.508Z,17.30
2022-07-29T01:34:59.373Z,17.40
2022-07-29T01:37:57.031Z,17.30
2022-07-29T01:40:55.159Z,17.30
2022-07-29T01:43:47.444Z,17.30
2022-07-29T01:46:25.621Z,17.30
2022-07-29T01:49:15.080Z,17.30
2022-07-29T01:51:59.807Z,17.20
2022-07-29T01:54:35.473Z,17.20
2022-07-29T01:57:05.004Z,17.20
2022-07-29T01:59:34.911Z,17.20
2022-07-29T02:02:03.364Z,17.10
2022-07-29T02:04:32.968Z,17.10
2022-07-29T02:07:04.917Z,17.20
2022-07-29T02:09:34.609Z,17.10
2022-07-29T02:12:04.306Z,17.10
2022-07-29T02:14:44.625Z,17.10
2022-07-29T02:17:13.587Z,17.10
2022-07-29T02:19:44.186Z,17.10
2022-07-29T02:22:13.053Z,17.10
2022-07-29T02:24:41.750Z,17.10
2022-07-29T02:27:10.577Z,17.00
2022-07-29T02:29:40.308Z,17.00
2022-07-29T02:32:11.442Z,17.00
2022-07-29T02:34:41.049Z,17.00
2022-07-29T02:37:11.012Z,16.90
2022-07-29T02:39:41.973Z,16.90
2022-07-29T02:42:11.219Z,16.80
2022-07-29T02:44:38.756Z,16.80
2022-07-29T02:47:21.732Z,16.70
2022-07-29T02:49:53.675Z,16.70
2022-07-29T02:52:56.132Z,16.70
2022-07-29T02:55:33.084Z,16.70
2022-07-29T02:58:16.725Z,16.70
2022-07-29T03:00:45.740Z,16.60
2022-07-29T03:03:16.281Z,16.60
2022-07-29T03:05:44.060Z,16.60
2022-07-29T03:08:13.694Z,16.50
2022-07-29T03:10:45.036Z,16.50
2022-07-29T03:13:14.077Z,16.40
2022-07-29T03:15:44.757Z,16.50
2022-07-29T03:18:12.966Z,16.40
2022-07-29T03:20:41.524Z,16.40
2022-07-29T03:23:12.085Z,16.40
2022-07-29T03:25:39.557Z,16.40
2022-07-29T03:28:07.002Z,16.40
2022-07-29T03:30:34.487Z,16.40
2022-07-29T03:33:02.010Z,16.30
2022-07-29T03:35:30.848Z,16.30
2022-07-29T03:37:58.900Z,16.30
2022-07-29T03:40:32.734Z,16.30
2022-07-29T03:43:01.847Z,16.30
2022-07-29T03:45:31.304Z,16.30
2022-07-29T03:48:08.248Z,16.30
2022-07-29T03:50:36.356Z,16.30
2022-07-29T03:53:04.147Z,16.30
2022-07-29T03:55:43.280Z,16.20
2022-07-29T03:58:13.432Z,16.20
2022-07-29T04:00:42.983Z,16.10
2022-07-29T04:03:11.815Z,16.20
2022-07-29T04:05:40.143Z,16.10
2022-07-29T04:08:07.661Z,16.10
2022-07-29T04:10:35.845Z,16.10
2022-07-29T04:13:03.504Z,16.10
2022-07-29T04:15:31.870Z,16.10
2022-07-29T04:18:00.309Z,16.00
2022-07-29T04:20:28.143Z,16.00
2022-07-29T04:22:55.579Z,16.00
2022-07-29T04:25:23.121Z,16.00
2022-07-29T04:28:02.516Z,15.90
2022-07-29T04:30:31.377Z,16.00
2022-07-29T04:32:59.462Z,16.00
2022-07-29T04:35:27.121Z,15.90
2022-07-29T04:37:54.594Z,16.00
2022-07-29T04:40:22.109Z,16.00
2022-07-29T04:42:49.713Z,16.00
2022-07-29T04:45:22.596Z,16.00
2022-07-29T04:47:50.903Z,16.00
2022-07-29T04:50:18.541Z,16.10
2022-07-29T04:52:46.031Z,16.00
2022-07-29T04:55:13.546Z,16.00
2022-07-29T04:57:41.436Z,16.10
2022-07-29T05:00:09.846Z,16.20
2022-07-29T05:02:37.399Z,16.20
2022-07-29T05:05:05.349Z,16.20
2022-07-29T05:07:32.864Z,16.20
2022-07-29T05:10:00.479Z,16.20
2022-07-29T05:12:28.741Z,16.20
2022-07-29T05:14:56.196Z,16.20
2022-07-29T05:17:23.666Z,16.20
2022-07-29T05:19:52.299Z,16.30
2022-07-29T05:22:20.877Z,16.30
2022-07-29T05:25:40.790Z,16.30
2022-07-29T05:28:12.902Z,16.30
2022-07-29T05:30:40.404Z,16.30
2022-07-29T05:33:07.849Z,16.30
2022-07-29T05:35:38.031Z,16.30
2022-07-29T05:38:05.489Z,16.30
2022-07-29T05:40:35.189Z,16.40
2022-07-29T05:43:02.551Z,16.40
2022-07-29T05:45:29.919Z,16.40
2022-07-29T05:47:58.065Z,16.40
2022-07-29T05:50:25.614Z,16.50
2022-07-29T05:52:53.276Z,16.50
2022-07-29T05:55:20.744Z,16.50
2022-07-29T05:57:48.178Z,16.60
2022-07-29T06:00:16.388Z,16.60
2022-07-29T06:02:43.918Z,16.70
2022-07-29T06:05:13.291Z,16.80
2022-07-29T06:07:50.045Z,16.80
2022-07-29T06:10:19.024Z,16.90
2022-07-29T06:12:46.432Z,17.00
2022-07-29T06:15:13.893Z,17.00
2022-07-29T06:18:00.338Z,17.10
2022-07-29T06:20:32.687Z,17.10
2022-07-29T06:23:00.960Z,17.10
2022-07-29T06:25:31.881Z,17.10
2022-07-29T06:27:59.293Z,17.10
2022-07-29T06:30:26.867Z,17.20
2022-07-29T06:32:54.532Z,17.30
2022-07-29T06:35:39.329Z,17.30
2022-07-29T06:38:30.962Z,17.40
2022-07-29T06:41:01.442Z,17.40
2022-07-29T06:43:50.814Z,17.60
2022-07-29T06:46:21.287Z,17.70
2022-07-29T06:48:49.458Z,17.80
2022-07-29T06:51:22.631Z,17.90
2022-07-29T06:53:58.340Z,18.00
2022-07-29T06:56:29.486Z,18.00
2022-07-29T06:58:56.960Z,18.10
2022-07-29T07:01:24.490Z,18.00
2022-07-29T07:03:51.997Z,18.00
2022-07-29T07:06:19.391Z,18.00
2022-07-29T07:08:47.546Z,18.10
2022-07-29T07:11:15.064Z,18.20
2022-07-29T07:13:42.416Z,18.20
2022-07-29T07:16:09.932Z,18.20
2022-07-29T07:18:37.396Z,18.20
2022-07-29T07:21:06.053Z,18.20
2022-07-29T07:23:33.467Z,18.20
2022-07-29T07:26:00.905Z,18.20
2022-07-29T07:28:28.441Z,18.20
2022-07-29T07:30:55.993Z,18.20
2022-07-29T07:33:23.720Z,18.10
2022-07-29T07:35:51.730Z,18.10
2022-07-29T07:38:19.253Z,18.20
2022-07-29T07:40:47.441Z,18.20
2022-07-29T07:43:14.904Z,18.30
2022-07-29T07:45:42.510Z,18.40
2022-07-29T07:48:11.176Z,18.40
2022-07-29T07:50:38.628Z,18.40
2022-07-29T07:53:06.384Z,18.50
2022-07-29T07:55:53.565Z,18.50
2022-07-29T07:58:21.327Z,18.60
2022-07-29T08:00:49.024Z,18.70
2022-07-29T08:03:16.929Z,18.80
2022-07-29T08:05:45.516Z,18.90
2022-07-29T08:08:14.372Z,18.90
2022-07-29T08:10:54.719Z,19.00
2022-07-29T08:13:24.491Z,19.00
2022-07-29T08:15:58.907Z,19.10
2022-07-29T08:18:28.423Z,19.10
2022-07-29T08:20:56.157Z,19.20
2022-07-29T08:23:24.142Z,19.30
2022-07-29T08:25:54.970Z,19.30
2022-07-29T08:28:25.777Z,19.40
2022-07-29T08:30:53.690Z,19.50
2022-07-29T08:33:21.075Z,19.40
2022-07-29T08:35:48.483Z,19.50
2022-07-29T08:38:15.847Z,19.50
2022-07-29T08:40:43.452Z,19.50
2022-07-29T08:43:11.021Z,19.60
2022-07-29T08:45:48.118Z,19.80
2022-07-29T08:48:21.492Z,19.90
2022-07-29T08:50:53.340Z,20.00
2022-07-29T08:53:22.018Z,20.00
2022-07-29T08:55:51.398Z,20.00
2022-07-29T08:58:22.314Z,20.10
2022-07-29T09:00:56.160Z,20.20
2022-07-29T09:03:45.673Z,20.30
2022-07-29T09:06:18.016Z,20.40
2022-07-29T09:08:46.262Z,20.40
2022-07-29T09:11:14.774Z,20.50
2022-07-29T09:13:42.307Z,20.50
2022-07-29T09:16:10.939Z,20.50
2022-07-29T09:18:40.868Z,20.50
2022-07-29T09:21:28.506Z,20.60
2022-07-29T09:24:07.602Z,20.70
2022-07-29T09:26:41.363Z,20.70
2022-07-29T09:29:14.534Z,20.70
2022-07-29T09:31:45.205Z,20.70
2022-07-29T09:34:14.280Z,20.70
2022-07-29T09:36:47.159Z,20.90
2022-07-29T09:39:17.883Z,21.00
2022-07-29T09:41:53.827Z,21.10
2022-07-29T09:44:22.182Z,21.00
2022-07-29T09:46:59.047Z,20.90
2022-07-29T09:49:26.947Z,20.90
2022-07-29T09:52:08.098Z,21.00
2022-07-29T09:54:39.894Z,21.10
2022-07-29T09:57:13.603Z,21.10
2022-07-29T10:00:00.024Z,21.10
2022-07-29T10:02:33.075Z,21.10
2022-07-29T10:05:02.266Z,21.10
2022-07-29T10:07:54.080Z,21.20
2022-07-29T10:10:21.763Z,21.30
2022-07-29T10:13:06.407Z,21.40
2022-07-29T10:15:39.534Z,21.50
2022-07-29T10:18:08.794Z,21.60
2022-07-29T10:20:36.828Z,21.60
2022-07-29T10:23:05.018Z,21.70
2022-07-29T10:25:32.853Z,21.80
2022-07-29T10:28:00.368Z,21.80
2022-07-29T10:30:28.537Z,21.80
2022-07-29T10:33:15.256Z,21.80
2022-07-29T10:35:48.859Z,21.90
2022-07-29T10:38:50.308Z,22.20
2022-07-29T10:41:44.328Z,22.20
2022-07-29T10:44:24.619Z,22.30
2022-07-29T10:46:53.478Z,22.50
2022-07-29T10:49:27.765Z,22.70
2022-07-29T10:52:02.451Z,22.90
2022-07-29T10:54:47.357Z,22.80
2022-07-29T10:57:53.572Z,22.80
2022-07-29T11:00:30.157Z,23.10
2022-07-29T11:03:00.194Z,23.30
2022-07-29T11:05:31.998Z,23.70
2022-07-29T11:08:20.065Z,23.90
2022-07-29T11:10:54.288Z,23.80
2022-07-29T11:13:52.335Z,24.00
2022-07-29T11:16:25.126Z,24.30
2022-07-29T11:19:15.742Z,24.40
2022-07-29T11:21:55.537Z,24.60
2022-07-29T11:24:30.257Z,24.40
2022-07-29T11:27:19.522Z,24.20
2022-07-29T11:29:55.768Z,24.10
2022-07-29T11:32:29.569Z,24.20
2022-07-29T11:35:17.695Z,24.20
2022-07-29T11:37:51.382Z,24.40
2022-07-29T11:40:21.369Z,24.60
2022-07-29T11:42:51.812Z,24.50
2022-07-29T11:45:42.535Z,24.70
2022-07-29T11:48:29.125Z,24.90
2022-07-29T11:51:01.036Z,25.20
2022-07-29T11:53:32.974Z,25.70
2022-07-29T11:56:02.793Z,25.80
2022-07-29T11:58:31.598Z,25.90
2022-07-29T12:01:04.635Z,26.00
2022-07-29T12:03:35.939Z,25.80
2022-07-29T12:06:18.337Z,25.50
2022-07-29T12:08:48.417Z,25.20
2022-07-29T12:11:22.483Z,24.70
2022-07-29T12:13:54.207Z,24.30
2022-07-29T12:16:29.319Z,24.10
2022-07-29T12:19:02.412Z,24.10
2022-07-29T12:21:52.340Z,24.90
2022-07-29T12:24:26.909Z,25.10
2022-07-29T12:26:57.177Z,25.70
2022-07-29T12:29:34.634Z,26.40
2022-07-29T12:32:06.315Z,26.80
2022-07-29T12:34:42.402Z,26.80
2022-07-29T12:37:11.187Z,26.80
2022-07-29T12:39:38.935Z,26.80
2022-07-29T12:42:14.002Z,27.40
2022-07-29T12:44:47.466Z,27.70
2022-07-29T12:47:15.387Z,27.40
2022-07-29T12:49:43.057Z,27.40
2022-07-29T12:52:34.476Z,27.70
2022-07-29T12:55:02.417Z,27.80
2022-07-29T12:57:30.294Z,27.50
2022-07-29T13:00:11.766Z,27.60
2022-07-29T13:02:41.755Z,27.70
2022-07-29T13:05:12.046Z,28.20
2022-07-29T13:07:55.525Z,28.50
2022-07-29T13:10:26.013Z,28.20
2022-07-29T13:13:11.195Z,27.40
2022-07-29T13:15:40.674Z,26.60
2022-07-29T13:18:36.270Z,26.00
2022-07-29T13:21:14.857Z,25.80
2022-07-29T13:23:43.022Z,26.00
2022-07-29T13:26:19.147Z,26.10
2022-07-29T13:28:46.784Z,26.00
2022-07-29T13:31:14.391Z,25.80
2022-07-29T13:33:41.891Z,25.90
2022-07-29T13:36:09.382Z,26.30
2022-07-29T13:38:36.731Z,27.40
2022-07-29T13:41:04.095Z,27.80
2022-07-29T13:43:32.969Z,28.60
2022-07-29T13:46:00.542Z,29.30
2022-07-29T13:48:29.802Z,29.60
2022-07-29T13:50:57.935Z,30.10
2022-07-29T13:53:26.738Z,30.30
2022-07-29T13:55:55.264Z,30.50
2022-07-29T13:58:22.891Z,30.60
2022-07-29T14:00:50.806Z,30.50
2022-07-29T14:03:18.388Z,29.90
2022-07-29T14:05:45.805Z,29.50
2022-07-29T14:08:13.212Z,29.70
2022-07-29T14:10:40.971Z,29.70
2022-07-29T14:13:24.472Z,30.20
2022-07-29T14:15:53.125Z,29.90
2022-07-29T14:18:20.611Z,28.40
2022-07-29T14:20:48.045Z,27.40
2022-07-29T14:23:16.292Z,26.70
2022-07-29T14:25:44.566Z,26.40
2022-07-29T14:28:12.732Z,26.10
2022-07-29T14:30:42.269Z,25.90
2022-07-29T14:33:10.140Z,25.70
2022-07-29T14:35:37.630Z,25.80
2022-07-29T14:38:05.086Z,26.60
2022-07-29T14:40:32.474Z,27.00
2022-07-29T14:42:59.989Z,26.80
2022-07-29T14:45:29.249Z,26.40
2022-07-29T14:47:57.390Z,27.00
2022-07-29T14:50:31.599Z,28.10
2022-07-29T14:53:00.694Z,29.10
2022-07-29T14:55:28.470Z,30.00
2022-07-29T14:58:05.826Z,29.50
2022-07-29T15:00:37.844Z,29.60
2022-07-29T15:03:05.819Z,28.80
2022-07-29T15:05:33.489Z,28.10
2022-07-29T15:08:01.250Z,27.80
2022-07-29T15:10:29.028Z,27.50
2022-07-29T15:12:57.931Z,27.20
2022-07-29T15:15:25.593Z,26.90
2022-07-29T15:17:54.280Z,26.80
2022-07-29T15:20:22.402Z,26.70
2022-07-29T15:22:49.828Z,26.60
2022-07-29T15:25:17.289Z,26.50
2022-07-29T15:27:48.911Z,26.40
2022-07-29T15:30:30.295Z,26.20
2022-07-29T15:33:03.925Z,26.10
2022-07-29T15:35:31.415Z,25.90
2022-07-29T15:37:58.860Z,25.70
2022-07-29T15:40:26.358Z,25.60
2022-07-29T15:42:55.437Z,25.60
2022-07-29T15:45:22.907Z,25.50
2022-07-29T15:47:50.354Z,25.50
2022-07-29T15:50:18.738Z,25.30
2022-07-29T15:52:47.043Z,25.40
2022-07-29T15:55:15.700Z,25.40
2022-07-29T15:57:43.551Z,25.50
2022-07-29T16:00:11.696Z,25.50
2022-07-29T16:02:39.590Z,25.50
2022-07-29T16:05:09.418Z,25.50
2022-07-29T16:07:37.810Z,25.40
2022-07-29T16:10:07.918Z,25.30
2022-07-29T16:12:35.358Z,25.20
2022-07-29T16:15:07.581Z,25.20
2022-07-29T16:17:37.844Z,25.20
2022-07-29T16:20:06.462Z,25.20
2022-07-29T16:22:33.996Z,25.20
2022-07-29T16:25:01.599Z,25.20
2022-07-29T16:27:35.545Z,25.20
2022-07-29T16:30:09.807Z,25.20
2022-07-29T16:32:37.298Z,25.20
2022-07-29T16:35:05.527Z,25.30
2022-07-29T16:37:37.199Z,25.30
2022-07-29T16:40:06.298Z,25.30
2022-07-29T16:42:46.497Z,25.20
2022-07-29T16:45:16.287Z,25.20
2022-07-29T16:47:45.385Z,25.30
2022-07-29T16:50:13.047Z,25.30
2022-07-29T16:52:40.553Z,25.20
2022-07-29T16:55:08.284Z,25.30
2022-07-29T16:57:35.747Z,25.40
2022-07-29T17:00:04.300Z,25.50
2022-07-29T17:02:31.915Z,25.40
2022-07-29T17:04:59.299Z,25.40
2022-07-29T17:07:30.206Z,25.30
2022-07-29T17:10:03.298Z,25.40
2022-07-29T17:12:32.426Z,25.40
2022-07-29T17:15:01.021Z,25.40
2022-07-29T17:17:39.178Z,25.40
2022-07-29T17:20:17.659Z,25.20
2022-07-29T17:22:45.341Z,25.20
2022-07-29T17:25:20.871Z,25.20
2022-07-29T17:27:50.876Z,25.20
2022-07-29T17:30:18.480Z,25.10
2022-07-29T17:32:45.997Z,25.00
2022-07-29T17:35:32.433Z,25.00
2022-07-29T17:37:59.962Z,25.00
2022-07-29T17:40:27.403Z,24.90
2022-07-29T17:42:54.863Z,24.80
2022-07-29T17:45:22.345Z,24.80
2022-07-29T17:47:49.724Z,24.80
2022-07-29T17:50:17.217Z,24.80
2022-07-29T17:52:44.678Z,24.80
2022-07-29T17:55:13.366Z,24.80
2022-07-29T17:57:40.813Z,24.80
2022-07-29T18:00:08.710Z,24.70
2022-07-29T18:02:37.664Z,24.70
2022-07-29T18:05:05.591Z,24.60
2022-07-29T18:07:33.042Z,24.50
2022-07-29T18:10:02.999Z,24.40
2022-07-29T18:12:30.968Z,24.30
2022-07-29T18:14:58.686Z,24.20
2022-07-29T18:17:51.472Z,24.20
2022-07-29T18:20:13.639Z,24.10
2022-07-29T18:22:41.740Z,24.00
2022-07-29T18:25:09.970Z,23.90
2022-07-29T18:27:37.589Z,23.80
2022-07-29T18:30:06.762Z,23.70
2022-07-29T18:32:34.277Z,23.60
2022-07-29T18:35:02.819Z,23.60
2022-07-29T18:38:01.580Z,23.60
2022-07-29T18:40:19.698Z,23.50
2022-07-29T18:42:47.794Z,23.40
2022-07-29T18:45:19.706Z,23.20
2022-07-29T18:47:49.357Z,23.10
2022-07-29T18:50:17.139Z,23.00
2022-07-29T18:52:46.360Z,22.90
2022-07-29T18:55:13.939Z,22.90
2022-07-29T18:57:53.702Z,22.80
2022-07-29T19:00:23.822Z,22.80
2022-07-29T19:02:52.583Z,22.70
2022-07-29T19:05:20.541Z,22.80
2022-07-29T19:07:47.954Z,22.70
2022-07-29T19:10:15.417Z,22.60
2022-07-29T19:12:43.070Z,22.60
2022-07-29T19:15:10.942Z,22.50
2022-07-29T19:17:39.313Z,22.50
2022-07-29T19:20:07.769Z,22.40
2022-07-29T19:22:35.350Z,22.40
2022-07-29T19:25:02.812Z,22.30
2022-07-29T19:27:30.245Z,22.20
2022-07-29T19:29:59.503Z,22.10
2022-07-29T19:32:27.172Z,22.00
2022-07-29T19:35:13.090Z,22.00
2022-07-29T19:37:40.565Z,22.00
2022-07-29T19:40:09.782Z,22.00
2022-07-29T19:42:37.322Z,22.00
2022-07-29T19:45:05.216Z,21.90
2022-07-29T19:47:32.599Z,21.90
2022-07-29T19:50:00.700Z,21.80
2022-07-29T19:52:28.471Z,21.70
2022-07-29T19:54:56.094Z,21.60
2022-07-29T19:57:24.232Z,21.60
2022-07-29T19:59:51.687Z,21.50
2022-07-29T20:02:19.208Z,21.40
2022-07-29T20:04:46.766Z,21.40
2022-07-29T20:07:14.369Z,21.40
2022-07-29T20:09:42.324Z,21.30
2022-07-29T20:12:11.125Z,21.20
2022-07-29T20:14:38.969Z,21.20
2022-07-29T20:17:06.765Z,21.10
2022-07-29T20:19:34.602Z,21.10
2022-07-29T20:22:02.107Z,21.10
2022-07-29T20:24:29.508Z,21.00
2022-07-29T20:26:57.312Z,20.90
2022-07-29T20:29:25.467Z,20.90
2022-07-29T20:31:56.316Z,20.90
2022-07-29T20:34:24.330Z,20.90
2022-07-29T20:36:51.985Z,20.90
2022-07-29T20:39:21.136Z,20.90
2022-07-29T20:41:49.322Z,20.80
2022-07-29T20:44:18.946Z,20.80
2022-07-29T20:46:46.475Z,20.80
2022-07-29T20:49:13.887Z,20.80
2022-07-29T20:51:43.939Z,20.80
2022-07-29T20:54:12.411Z,20.80
2022-07-29T20:56:41.612Z,20.70
2022-07-29T20:59:09.361Z,20.70
2022-07-29T21:01:36.924Z,20.80
2022-07-29T21:04:04.703Z,20.80
2022-07-29T21:06:32.256Z,20.80
2022-07-29T21:09:01.113Z,20.90
2022-07-29T21:11:43.219Z,20.90
2022-07-29T21:14:23.205Z,21.00
2022-07-29T21:16:51.224Z,21.00
2022-07-29T21:19:18.615Z,21.00
2022-07-29T21:21:46.259Z,21.10
2022-07-29T21:24:13.655Z,21.10
2022-07-29T21:26:41.076Z,21.00
2022-07-29T21:29:08.443Z,21.00
2022-07-29T21:31:35.853Z,21.00
2022-07-29T21:34:03.286Z,21.00
2022-07-29T21:39:18.202Z,21.00
2022-07-29T21:41:45.646Z,21.00
2022-07-29T21:44:13.052Z,21.00
2022-07-29T21:46:40.484Z,21.00
2022-07-29T21:49:07.923Z,21.00
2022-07-29T21:51:35.372Z,21.00
2022-07-29T21:54:04.136Z,21.00
2022-07-29T21:56:31.662Z,21.00
2022-07-29T21:58:59.168Z,21.00
2022-07-29T22:01:26.661Z,20.90
2022-07-29T22:03:54.185Z,20.90
2022-07-29T22:06:22.492Z,20.90
2022-07-29T22:08:50.140Z,20.80
2022-07-29T22:11:17.633Z,20.80
2022-07-29T22:13:47.715Z,20.70
2022-07-29T22:16:15.332Z,20.70
2022-07-29T22:18:46.740Z,20.60
2022-07-29T22:21:15.301Z,20.60
2022-07-29T22:23:42.860Z,20.50
2022-07-29T22:26:10.351Z,20.50
2022-07-29T22:28:37.751Z,20.50
2022-07-29T22:31:05.229Z,20.50
2022-07-29T22:33:32.691Z,20.40
2022-07-29T22:36:00.075Z,20.40
2022-07-29T22:38:27.681Z,20.40
2022-07-29T22:40:55.074Z,20.30
2022-07-29T22:43:28.221Z,20.30
2022-07-29T22:45:55.656Z,20.20
2022-07-29T22:48:23.205Z,20.20
2022-07-29T22:50:50.689Z,20.20
2022-07-29T22:53:18.158Z,20.20
2022-07-29T22:55:46.112Z,20.20
2022-07-29T22:58:13.516Z,20.10
2022-07-29T23:00:41.307Z,20.10
2022-07-29T23:03:08.729Z,20.10
2022-07-29T23:05:36.191Z,20.00
2022-07-29T23:08:03.914Z,20.00
2022-07-29T23:10:31.579Z,20.00
2022-07-29T23:12:59.155Z,20.00
2022-07-29T23:15:26.594Z,20.00
2022-07-29T23:17:54.053Z,19.90
2022-07-29T23:20:21.449Z,19.90
2022-07-29T23:22:48.978Z,19.90
2022-07-29T23:25:16.436Z,19.90
2022-07-29T23:27:43.901Z,19.90
2022-07-29T23:30:12.404Z,19.90
2022-07-29T23:32:39.872Z,19.90
2022-07-29T23:35:08.149Z,19.90
2022-07-29T23:37:35.584Z,19.80
2022-07-29T23:40:03.789Z,19.80
2022-07-29T23:42:31.263Z,19.80
2022-07-29T23:44:58.669Z,19.70
2022-07-29T23:47:26.456Z,19.70
2022-07-29T23:49:53.829Z,19.70
2022-07-29T23:52:21.387Z,19.60
2022-07-29T23:54:48.954Z,19.60
2022-07-29T23:57:16.480Z,19.60
2022-07-29T23:59:44.079Z,19.60
